createdAt,value
2023-01-07T00:00:16.672Z,23.60
2023-01-07T00:03:04.647Z,25.40
2023-01-07T00:05:32.688Z,25.50
2023-01-07T00:08:05.135Z,24.80
2023-01-07T00:10:34.704Z,26.50
2023-01-07T00:13:02.958Z,26.20
2023-01-07T00:15:31.054Z,24.90
2023-01-07T00:17:59.106Z,24.90
2023-01-07T00:20:27.023Z,26.40
2023-01-07T00:22:54.937Z,28.30
2023-01-07T00:25:22.933Z,27.10
2023-01-07T00:27:51.148Z,27.50
2023-01-07T00:30:19.095Z,27.00
2023-01-07T00:32:59.860Z,24.70
2023-01-07T00:35:28.624Z,28.60
2023-01-07T00:37:56.645Z,29.20
2023-01-07T00:40:24.996Z,31.50
2023-01-07T00:42:55.826Z,30.70
2023-01-07T00:45:25.602Z,29.80
2023-01-07T00:47:53.711Z,28.70
2023-01-07T00:50:24.015Z,30.00
2023-01-07T00:52:52.167Z,29.70
2023-01-07T00:55:20.597Z,29.60
2023-01-07T00:57:49.019Z,34.70
2023-01-07T01:00:19.306Z,32.40
2023-01-07T01:03:14.206Z,34.60
2023-01-07T01:08:12.098Z,30.50
2023-01-07T01:10:40.037Z,30.40
2023-01-07T01:13:10.547Z,30.50
2023-01-07T01:15:42.940Z,31.70
2023-01-07T01:18:11.633Z,34.40
2023-01-07T01:20:40.564Z,34.20
2023-01-07T01:23:08.826Z,33.70
2023-01-07T01:30:23.638Z,34.40
2023-01-07T01:32:51.781Z,34.50
2023-01-07T01:36:13.405Z,41.40
2023-01-07T01:38:42.009Z,41.30
2023-01-07T01:41:10.385Z,42.20
2023-01-07T01:43:42.079Z,41.40
2023-01-07T01:46:19.670Z,39.70
2023-01-07T01:48:57.380Z,41.20
2023-01-07T01:51:27.861Z,40.50
2023-01-07T01:53:56.587Z,45.70
2023-01-07T01:56:34.095Z,42.70
2023-01-07T01:59:06.943Z,39.70
2023-01-07T02:01:37.251Z,42.50
2023-01-07T02:04:18.312Z,39.30
2023-01-07T02:07:10.993Z,42.90
2023-01-07T02:09:42.051Z,38.80
2023-01-07T02:12:32.681Z,51.50
2023-01-07T02:15:22.752Z,52.20
2023-01-07T02:18:05.665Z,39.00
2023-01-07T02:20:45.789Z,40.60
2023-01-07T02:23:52.034Z,35.80
2023-01-07T02:26:48.990Z,38.10
2023-01-07T02:29:36.177Z,39.90
2023-01-07T02:32:15.318Z,39.50
2023-01-07T02:35:05.590Z,39.20
2023-01-07T02:38:06.196Z,37.90
2023-01-07T02:40:36.913Z,38.30
2023-01-07T02:43:11.013Z,35.70
2023-01-07T02:45:48.301Z,37.10
2023-01-07T02:48:19.857Z,35.60
2023-01-07T02:50:47.738Z,38.40
2023-01-07T02:53:19.850Z,39.80
2023-01-07T02:56:12.452Z,44.90
2023-01-07T02:59:15.030Z,40.80
2023-01-07T03:02:20.574Z,40.20
2023-01-07T03:08:02.491Z,36.50
2023-01-07T03:10:51.451Z,37.30
2023-01-07T03:13:45.336Z,40.60
2023-01-07T03:16:35.170Z,44.30
2023-01-07T03:19:09.457Z,40.10
2023-01-07T03:21:38.490Z,35.50
2023-01-07T03:24:08.251Z,32.50
2023-01-07T03:26:43.423Z,34.40
2023-01-07T03:29:14.429Z,38.60
2023-01-07T03:32:07.124Z,43.00
2023-01-07T03:34:37.541Z,37.70
2023-01-07T03:37:10.771Z,35.00
2023-01-07T03:39:40.821Z,33.30
2023-01-07T03:42:30.354Z,31.60
2023-01-07T03:44:58.986Z,31.40
2023-01-07T03:47:29.043Z,33.20
2023-01-07T03:49:57.221Z,37.10
2023-01-07T03:52:25.216Z,36.50
2023-01-07T03:54:53.412Z,35.20
2023-01-07T03:57:27.103Z,33.00
2023-01-07T03:59:55.065Z,48.50
2023-01-07T04:02:23.233Z,40.60
2023-01-07T04:04:55.057Z,34.90
2023-01-07T04:07:23.222Z,35.10
2023-01-07T04:09:51.181Z,34.10
2023-01-07T04:12:19.382Z,30.90
2023-01-07T04:14:47.500Z,30.30
2023-01-07T04:17:16.046Z,30.70
2023-01-07T04:19:44.165Z,31.40
2023-01-07T04:22:39.009Z,31.60
2023-01-07T04:25:08.398Z,39.20
2023-01-07T04:27:36.843Z,36.70
2023-01-07T04:30:05.731Z,37.30
2023-01-07T04:32:35.319Z,35.40
2023-01-07T04:35:03.530Z,39.00
2023-01-07T04:37:31.867Z,34.70
2023-01-07T04:40:00.341Z,33.50
2023-01-07T04:42:30.544Z,45.30
2023-01-07T04:44:58.644Z,38.20
2023-01-07T04:47:26.739Z,44.30
2023-01-07T04:50:22.040Z,45.20
2023-01-07T04:52:50.237Z,39.00
2023-01-07T04:55:19.074Z,43.10
2023-01-07T05:02:34.224Z,53.30
2023-01-07T05:05:04.177Z,50.20
2023-01-07T05:07:33.705Z,49.80
2023-01-07T05:10:06.433Z,44.60
2023-01-07T05:12:36.198Z,40.30
2023-01-07T05:15:05.965Z,40.80
2023-01-07T05:17:35.373Z,39.90
2023-01-07T05:20:06.167Z,43.90
2023-01-07T05:22:35.609Z,48.70
2023-01-07T05:25:04.264Z,52.50
2023-01-07T05:27:32.912Z,50.50
2023-01-07T05:30:01.257Z,49.60
2023-01-07T05:32:29.374Z,47.20
2023-01-07T05:34:57.750Z,44.60
2023-01-07T05:37:26.244Z,50.40
2023-01-07T05:39:54.589Z,49.00
2023-01-07T05:42:24.090Z,45.20
2023-01-07T05:44:52.460Z,44.60
2023-01-07T05:47:26.141Z,52.70
2023-01-07T05:49:54.087Z,63.30
2023-01-07T05:57:01.685Z,81.70
2023-01-07T05:59:29.845Z,66.00
2023-01-07T06:01:57.759Z,65.40
2023-01-07T06:04:25.792Z,61.70
2023-01-07T06:06:53.839Z,54.30
2023-01-07T06:09:22.634Z,84.60
2023-01-07T06:11:50.562Z,63.00
2023-01-07T06:14:18.493Z,87.40
2023-01-07T06:16:46.427Z,120.50
2023-01-07T06:19:14.491Z,160.30
2023-01-07T06:21:42.451Z,116.70
2023-01-07T06:24:11.561Z,49.40
2023-01-07T06:26:39.512Z,62.80
2023-01-07T06:29:07.443Z,62.90
2023-01-07T06:31:35.525Z,63.10
2023-01-07T06:34:03.531Z,69.20
2023-01-07T06:36:31.508Z,56.80
2023-01-07T06:38:59.462Z,54.20
2023-01-07T06:41:27.448Z,58.10
2023-01-07T06:43:55.541Z,56.30
2023-01-07T06:46:23.593Z,67.40
2023-01-07T06:48:51.533Z,64.10
2023-01-07T06:51:19.656Z,60.40
2023-01-07T06:53:47.592Z,60.90
2023-01-07T06:56:15.522Z,61.00
2023-01-07T06:58:45.596Z,55.80
2023-01-07T07:01:13.734Z,62.20
2023-01-07T07:03:41.748Z,59.80
2023-01-07T07:06:09.728Z,69.30
2023-01-07T07:08:37.749Z,82.50
2023-01-07T07:11:05.736Z,72.80
2023-01-07T07:13:33.698Z,68.90
2023-01-07T07:16:02.142Z,65.90
2023-01-07T07:18:30.731Z,73.60
2023-01-07T07:20:58.846Z,157.30
2023-01-07T07:23:26.841Z,118.90
2023-01-07T07:25:54.762Z,157.80
2023-01-07T07:28:22.761Z,188.40
2023-01-07T07:30:50.696Z,160.20
2023-01-07T07:33:19.735Z,179.40
2023-01-07T07:35:48.481Z,204.70
2023-01-07T07:38:18.011Z,277.10
2023-01-07T07:40:47.265Z,195.20
2023-01-07T07:43:15.777Z,153.40
2023-01-07T07:45:44.135Z,175.60
2023-01-07T07:48:16.520Z,121.40
2023-01-07T07:50:44.550Z,172.10
2023-01-07T07:53:12.435Z,211.40
2023-01-07T07:55:41.335Z,203.30
2023-01-07T07:58:09.406Z,172.70
2023-01-07T08:00:37.375Z,74.20
2023-01-07T08:03:05.511Z,141.30
2023-01-07T08:05:33.543Z,135.20
2023-01-07T08:08:02.285Z,209.40
2023-01-07T08:10:30.428Z,187.30
2023-01-07T08:12:59.036Z,119.90
2023-01-07T08:16:18.980Z,95.10
2023-01-07T08:18:47.173Z,106.10
2023-01-07T08:21:15.296Z,100.90
2023-01-07T08:23:43.412Z,64.00
2023-01-07T08:26:11.399Z,62.30
2023-01-07T08:28:39.510Z,62.10
2023-01-07T08:31:08.471Z,64.90
2023-01-07T08:33:38.814Z,58.90
2023-01-07T08:36:21.551Z,58.70
2023-01-07T08:38:54.834Z,62.60
2023-01-07T08:41:24.383Z,55.30
2023-01-07T08:43:53.605Z,50.80
2023-01-07T08:46:21.821Z,49.60
2023-01-07T08:48:49.936Z,48.80
2023-01-07T08:51:17.906Z,45.50
2023-01-07T08:53:45.911Z,43.40
2023-01-07T08:56:13.958Z,38.80
2023-01-07T08:58:41.924Z,40.40
2023-01-07T09:01:15.295Z,38.10
2023-01-07T09:03:43.666Z,48.30
2023-01-07T09:06:12.074Z,45.40
2023-01-07T09:08:40.598Z,43.60
2023-01-07T09:11:08.758Z,47.40
2023-01-07T09:13:36.685Z,47.80
2023-01-07T09:16:04.984Z,46.10
2023-01-07T09:18:33.041Z,56.00
2023-01-07T09:21:01.452Z,64.90
2023-01-07T09:23:29.445Z,85.10
2023-01-07T09:25:57.553Z,84.70
2023-01-07T09:28:25.556Z,92.30
2023-01-07T09:30:55.940Z,87.40
2023-01-07T09:33:24.838Z,80.50
2023-01-07T09:35:52.951Z,80.30
2023-01-07T09:38:21.069Z,75.80
2023-01-07T09:40:49.680Z,83.40
2023-01-07T09:43:59.501Z,79.40
2023-01-07T09:46:57.623Z,62.50
2023-01-07T09:49:30.201Z,63.30
2023-01-07T09:52:15.983Z,61.20
2023-01-07T09:54:48.812Z,55.60
2023-01-07T09:57:18.091Z,52.60
2023-01-07T10:04:32.346Z,47.00
2023-01-07T10:12:03.525Z,46.00
2023-01-07T10:14:53.399Z,50.90
2023-01-07T10:17:22.300Z,55.10
2023-01-07T10:20:02.523Z,47.40
2023-01-07T10:23:10.863Z,49.30
2023-01-07T10:25:53.910Z,43.00
2023-01-07T10:28:31.031Z,40.00
2023-01-07T10:31:00.470Z,37.30
2023-01-07T10:33:32.140Z,36.60
2023-01-07T10:36:19.846Z,37.70
2023-01-07T10:39:11.419Z,35.50
2023-01-07T10:42:25.539Z,39.90
2023-01-07T10:45:20.028Z,36.50
2023-01-07T10:47:47.973Z,30.70
2023-01-07T10:50:53.844Z,30.60
2023-01-07T10:53:30.974Z,26.90
2023-01-07T10:56:17.990Z,22.80
2023-01-07T10:58:48.312Z,22.10
2023-01-07T11:01:27.223Z,21.80
2023-01-07T11:03:57.882Z,24.20
2023-01-07T11:06:34.914Z,25.50
2023-01-07T11:09:06.581Z,24.40
2023-01-07T11:11:36.353Z,22.50
2023-01-07T11:14:11.764Z,23.80
2023-01-07T11:16:51.429Z,24.10
2023-01-07T11:19:20.325Z,25.00
2023-01-07T11:21:52.429Z,25.70
2023-01-07T11:24:33.968Z,23.00
2023-01-07T11:27:17.147Z,17.50
2023-01-07T11:30:19.987Z,18.00
2023-01-07T11:33:04.076Z,17.60
2023-01-07T11:35:33.012Z,15.90
2023-01-07T11:38:01.105Z,48.80
2023-01-07T11:40:31.934Z,21.80
2023-01-07T11:43:03.840Z,12.50
2023-01-07T11:46:21.092Z,10.30
2023-01-07T11:48:53.053Z,14.50
2023-01-07T11:51:23.226Z,11.30
2023-01-07T11:53:55.640Z,9.00
2023-01-07T11:56:28.140Z,8.80
2023-01-07T11:59:31.477Z,10.10
2023-01-07T12:01:59.853Z,9.70
2023-01-07T12:04:32.036Z,7.90
2023-01-07T12:07:04.414Z,11.50
2023-01-07T12:09:32.321Z,7.90
2023-01-07T12:12:40.287Z,8.40
2023-01-07T12:15:47.405Z,7.80
2023-01-07T12:18:26.409Z,7.70
2023-01-07T12:21:09.549Z,7.00
2023-01-07T12:24:05.431Z,5.60
2023-01-07T12:26:39.376Z,6.80
2023-01-07T12:29:36.466Z,6.70
2023-01-07T12:32:10.486Z,7.40
2023-01-07T12:37:45.935Z,7.70
2023-01-07T12:40:13.984Z,6.10
2023-01-07T12:42:51.270Z,6.50
2023-01-07T12:45:29.503Z,6.50
2023-01-07T12:48:06.482Z,7.80
2023-01-07T12:50:48.269Z,7.00
2023-01-07T12:53:25.372Z,11.90
2023-01-07T12:56:23.043Z,30.60
2023-01-07T12:58:54.743Z,20.00
2023-01-07T13:01:29.309Z,23.40
2023-01-07T13:04:05.302Z,62.70
2023-01-07T13:06:33.285Z,39.30
2023-01-07T13:09:16.730Z,38.40
2023-01-07T13:12:41.719Z,10.70
2023-01-07T13:15:34.084Z,11.80
2023-01-07T13:18:07.796Z,41.30
2023-01-07T13:20:54.665Z,32.50
2023-01-07T13:23:32.679Z,11.60
2023-01-07T13:26:28.413Z,13.10
2023-01-07T13:29:34.364Z,18.30
2023-01-07T13:32:08.501Z,10.10
2023-01-07T13:34:55.002Z,10.10
2023-01-07T13:37:25.818Z,9.80
2023-01-07T13:39:59.776Z,8.50
2023-01-07T13:42:53.713Z,15.30
2023-01-07T13:45:26.809Z,17.70
2023-01-07T13:47:59.052Z,10.40
2023-01-07T13:50:43.624Z,8.50
2023-01-07T13:53:16.705Z,10.50
2023-01-07T13:55:47.748Z,8.80
2023-01-07T13:58:31.180Z,7.30
2023-01-07T14:01:05.126Z,8.20
2023-01-07T14:03:45.677Z,7.90
2023-01-07T14:06:23.859Z,7.70
2023-01-07T14:09:07.348Z,7.70
2023-01-07T14:11:44.277Z,8.70
2023-01-07T14:15:03.719Z,11.00
2023-01-07T14:18:22.828Z,10.10
2023-01-07T14:21:09.012Z,12.20
2023-01-07T14:24:02.086Z,13.80
2023-01-07T14:26:40.832Z,12.60
2023-01-07T14:29:15.926Z,13.80
2023-01-07T14:31:44.274Z,16.60
2023-01-07T14:34:26.630Z,18.50
2023-01-07T14:37:09.191Z,26.60
2023-01-07T14:39:39.746Z,26.30
2023-01-07T14:42:19.800Z,29.80
2023-01-07T14:44:51.451Z,38.00
2023-01-07T14:47:41.507Z,35.20
2023-01-07T14:50:23.562Z,23.80
2023-01-07T14:53:08.744Z,14.20
2023-01-07T14:56:24.516Z,29.70
2023-01-07T15:02:26.319Z,32.00
2023-01-07T15:05:31.789Z,42.00
2023-01-07T15:08:23.010Z,36.30
2023-01-07T15:11:11.142Z,40.60
2023-01-07T15:14:03.346Z,42.50
2023-01-07T15:16:36.001Z,41.40
2023-01-07T15:19:04.183Z,38.80
2023-01-07T15:21:43.477Z,40.70
2023-01-07T15:24:26.809Z,41.20
2023-01-07T15:27:06.260Z,39.50
2023-01-07T15:30:01.589Z,34.80
2023-01-07T15:32:49.777Z,38.80
2023-01-07T15:35:22.071Z,40.40
2023-01-07T15:37:51.632Z,46.90
2023-01-07T15:40:23.153Z,46.70
2023-01-07T15:42:56.314Z,37.10
2023-01-07T15:45:27.898Z,38.20
2023-01-07T15:48:08.051Z,39.80
2023-01-07T15:50:41.209Z,35.30
2023-01-07T15:53:12.335Z,33.30
2023-01-07T15:55:52.002Z,36.30
2023-01-07T15:58:24.492Z,37.40
2023-01-07T16:00:54.957Z,38.10
2023-01-07T16:03:24.417Z,37.70
2023-01-07T16:05:53.510Z,39.40
2023-01-07T16:08:28.987Z,46.50
2023-01-07T16:11:09.105Z,42.50
2023-01-07T16:13:37.251Z,42.40
2023-01-07T16:20:41.664Z,42.00
2023-01-07T16:23:18.334Z,41.20
2023-01-07T16:26:07.176Z,49.00
2023-01-07T16:28:45.040Z,56.30
2023-01-07T16:31:16.984Z,54.50
2023-01-07T16:33:47.146Z,56.20
2023-01-07T16:36:17.564Z,57.80
2023-01-07T16:38:47.775Z,57.90
2023-01-07T16:41:22.178Z,53.00
2023-01-07T16:43:56.335Z,48.90
2023-01-07T16:46:31.657Z,52.90
2023-01-07T16:49:08.972Z,58.00
2023-01-07T16:51:45.214Z,54.10
2023-01-07T16:54:23.204Z,54.50
2023-01-07T16:57:24.201Z,52.50
2023-01-07T16:59:55.709Z,51.40
2023-01-07T17:02:32.911Z,46.50
2023-01-07T17:05:20.161Z,49.70
2023-01-07T17:07:52.510Z,50.50
2023-01-07T17:10:27.792Z,54.90
2023-01-07T17:12:58.010Z,68.50
2023-01-07T17:15:34.849Z,68.30
2023-01-07T17:18:12.125Z,45.10
2023-01-07T17:21:00.507Z,57.20
2023-01-07T17:23:28.730Z,60.20
2023-01-07T17:26:02.700Z,61.50
2023-01-07T17:28:34.169Z,52.90
2023-01-07T17:31:02.735Z,46.70
2023-01-07T17:33:30.983Z,41.70
2023-01-07T17:35:59.179Z,39.60
2023-01-07T17:38:28.808Z,38.00
2023-01-07T17:40:58.869Z,40.30
2023-01-07T17:43:33.599Z,46.80
2023-01-07T17:46:03.942Z,43.20
2023-01-07T17:48:32.687Z,40.50
2023-01-07T17:51:04.790Z,39.60
2023-01-07T17:53:36.535Z,46.00
2023-01-07T17:56:04.985Z,54.00
2023-01-07T17:58:36.586Z,51.70
2023-01-07T18:01:11.380Z,61.30
2023-01-07T18:03:39.905Z,54.10
2023-01-07T18:06:17.988Z,55.50
2023-01-07T18:08:47.213Z,69.70
2023-01-07T18:11:46.644Z,58.60
2023-01-07T18:14:15.460Z,48.80
2023-01-07T18:16:43.590Z,50.30
2023-01-07T18:19:15.357Z,55.40
2023-01-07T18:21:43.307Z,51.30
2023-01-07T18:24:22.137Z,52.20
2023-01-07T18:26:50.542Z,56.60
2023-01-07T18:29:18.610Z,56.70
2023-01-07T18:31:46.641Z,65.50
2023-01-07T18:34:15.990Z,74.10
2023-01-07T18:36:44.260Z,71.00
2023-01-07T18:39:19.177Z,67.40
2023-01-07T18:42:14.145Z,76.50
2023-01-07T18:44:42.066Z,74.90
2023-01-07T18:47:10.071Z,92.50
2023-01-07T18:49:39.083Z,92.90
2023-01-07T18:52:07.595Z,113.50
2023-01-07T18:54:35.526Z,103.70
2023-01-07T18:57:04.729Z,108.20
2023-01-07T18:59:32.847Z,97.30
2023-01-07T19:02:01.021Z,74.00
2023-01-07T19:04:29.919Z,60.70
2023-01-07T19:06:57.949Z,64.70
2023-01-07T19:09:26.034Z,60.20
2023-01-07T19:11:53.988Z,75.50
2023-01-07T19:14:22.776Z,57.40
2023-01-07T19:16:51.053Z,57.20
2023-01-07T19:19:19.174Z,55.20
2023-01-07T19:21:48.804Z,52.60
2023-01-07T19:24:17.124Z,52.00
2023-01-07T19:26:47.277Z,53.00
2023-01-07T19:29:15.277Z,156.70
2023-01-07T19:31:45.632Z,175.70
2023-01-07T19:34:14.647Z,72.30
2023-01-07T19:36:46.832Z,54.80
2023-01-07T19:39:17.714Z,54.30
2023-01-07T19:41:46.260Z,60.70
2023-01-07T19:44:15.345Z,60.30
2023-01-07T19:46:44.342Z,65.50
2023-01-07T19:50:06.208Z,60.60
2023-01-07T19:52:36.144Z,53.80
2023-01-07T19:55:04.745Z,58.10
2023-01-07T19:57:32.836Z,53.60
2023-01-07T20:00:01.158Z,56.00
2023-01-07T20:02:31.534Z,59.10
2023-01-07T20:04:59.913Z,56.90
2023-01-07T20:07:29.719Z,60.80
2023-01-07T20:09:57.867Z,55.40
2023-01-07T20:12:25.944Z,59.80
2023-01-07T20:14:53.954Z,68.40
2023-01-07T20:17:22.034Z,67.40
2023-01-07T20:19:50.682Z,71.90
2023-01-07T20:22:18.731Z,71.80
2023-01-07T20:24:46.935Z,59.80
2023-01-07T20:27:14.938Z,54.70
2023-01-07T20:29:42.995Z,53.20
2023-01-07T20:32:11.138Z,48.40
2023-01-07T20:34:39.475Z,51.20
2023-01-07T20:37:07.656Z,54.10
2023-01-07T20:39:35.687Z,55.60
2023-01-07T20:42:06.305Z,57.90
2023-01-07T20:44:34.817Z,53.80
2023-01-07T20:47:05.005Z,49.60
2023-01-07T20:49:58.057Z,50.50
2023-01-07T20:52:26.220Z,49.50
2023-01-07T20:54:54.210Z,51.30
2023-01-07T20:57:22.199Z,52.20
2023-01-07T20:59:50.134Z,55.90
2023-01-07T21:02:18.639Z,60.60
2023-01-07T21:04:46.762Z,59.10
2023-01-07T21:07:14.783Z,54.50
2023-01-07T21:09:44.955Z,53.30
2023-01-07T21:12:16.032Z,53.60
2023-01-07T21:14:44.007Z,57.70
2023-01-07T21:17:13.356Z,59.60
2023-01-07T21:19:42.113Z,55.90
2023-01-07T21:22:10.753Z,52.10
2023-01-07T21:24:38.761Z,51.90
2023-01-07T21:27:06.853Z,54.50
2023-01-07T21:29:34.821Z,57.30
2023-01-07T21:32:04.429Z,60.80
2023-01-07T21:34:32.518Z,57.40
2023-01-07T21:37:00.567Z,52.00
2023-01-07T21:39:28.689Z,50.70
2023-01-07T21:41:56.681Z,48.20
2023-01-07T21:44:24.648Z,50.50
2023-01-07T21:46:52.677Z,49.00
2023-01-07T21:49:20.639Z,49.70
2023-01-07T21:51:53.254Z,49.50
2023-01-07T21:54:21.487Z,48.30
2023-01-07T21:56:49.553Z,46.30
2023-01-07T21:59:17.756Z,44.50
2023-01-07T22:01:45.875Z,45.60
2023-01-07T22:04:14.037Z,46.50
2023-01-07T22:06:42.102Z,48.90
2023-01-07T22:09:14.582Z,50.50
2023-01-07T22:11:44.549Z,56.40
2023-01-07T22:14:15.849Z,51.30
2023-01-07T22:16:44.022Z,49.60
2023-01-07T22:19:12.689Z,49.60
2023-01-07T22:21:40.716Z,49.50
2023-01-07T22:24:09.474Z,52.40
2023-01-07T22:26:38.242Z,52.40
2023-01-07T22:29:07.868Z,55.00
2023-01-07T22:31:37.627Z,52.70
2023-01-07T22:34:08.085Z,51.80
2023-01-07T22:36:54.672Z,49.20
2023-01-07T22:39:36.425Z,49.70
2023-01-07T22:42:14.620Z,48.60
2023-01-07T22:44:46.933Z,47.60
2023-01-07T22:47:18.231Z,49.50
2023-01-07T22:49:48.576Z,48.50
2023-01-07T22:52:16.763Z,46.50
2023-01-07T22:54:44.923Z,47.10
2023-01-07T22:57:14.112Z,46.40
2023-01-07T23:04:28.540Z,54.30
2023-01-07T23:06:56.499Z,53.80
2023-01-07T23:09:24.494Z,49.30
2023-01-07T23:11:54.910Z,49.40
2023-01-07T23:14:23.860Z,47.90
2023-01-07T23:16:52.615Z,47.70
2023-01-07T23:19:21.242Z,51.00
2023-01-07T23:21:52.488Z,48.10
2023-01-07T23:24:21.825Z,48.70
2023-01-07T23:31:42.293Z,45.70
2023-01-07T23:34:10.647Z,45.10
2023-01-07T23:36:39.085Z,45.70
2023-01-07T23:39:07.508Z,45.50
2023-01-07T23:41:35.984Z,43.60
2023-01-07T23:44:04.104Z,43.00
2023-01-07T23:46:32.431Z,41.30
2023-01-07T23:49:00.365Z,41.60
2023-01-07T23:51:28.287Z,41.30
2023-01-07T23:53:56.276Z,42.90
2023-01-07T23:56:24.311Z,43.20
2023-01-07T23:58:52.307Z,41.00
